createdAt,value
2022-08-28T00:02:00.168Z,2.22
2022-08-28T00:04:27.375Z,2.22
2022-08-28T00:06:54.408Z,2.17
2022-08-28T00:09:21.134Z,2.20
2022-08-28T00:11:49.414Z,2.42
2022-08-28T00:14:20.963Z,2.25
2022-08-28T00:16:52.236Z,2.30
2022-08-28T00:19:19.718Z,2.20
2022-08-28T00:21:46.979Z,2.13
2022-08-28T00:24:16.683Z,2.72
2022-08-28T00:27:02.905Z,2.33
2022-08-28T00:29:30.379Z,2.05
2022-08-28T00:31:57.466Z,2.10
2022-08-28T00:34:29.655Z,2.20
2022-08-28T00:37:00.589Z,2.30
2022-08-28T00:39:27.443Z,1.90
2022-08-28T00:41:56.630Z,2.15
2022-08-28T00:44:26.891Z,2.20
2022-08-28T00:46:55.286Z,2.10
2022-08-28T00:49:26.035Z,2.10
2022-08-28T00:52:09.094Z,2.05
2022-08-28T00:54:59.346Z,1.98
2022-08-28T00:57:37.390Z,1.90
2022-08-28T01:00:10.834Z,2.00
2022-08-28T01:02:37.686Z,2.00
2022-08-28T01:05:09.477Z,1.90
2022-08-28T01:07:40.201Z,2.50
2022-08-28T01:10:14.355Z,2.03
2022-08-28T01:12:42.222Z,1.92
2022-08-28T01:15:17.403Z,2.35
2022-08-28T01:17:48.054Z,2.13
2022-08-28T01:20:19.183Z,2.40
2022-08-28T01:22:59.246Z,1.73
2022-08-28T01:25:30.582Z,1.80
2022-08-28T01:27:58.160Z,1.83
2022-08-28T01:30:28.882Z,1.85
2022-08-28T01:32:56.715Z,2.10
2022-08-28T01:35:30.125Z,2.28
2022-08-28T01:37:59.862Z,2.03
2022-08-28T01:40:46.460Z,2.10
2022-08-28T01:43:17.620Z,2.15
2022-08-28T01:45:49.066Z,1.85
2022-08-28T01:48:16.599Z,2.13
2022-08-28T01:50:44.047Z,2.17
2022-08-28T01:53:15.564Z,1.77
2022-08-28T01:55:43.890Z,2.00
2022-08-28T01:58:12.628Z,2.10
2022-08-28T02:00:39.926Z,2.10
2022-08-28T02:03:06.950Z,1.48
2022-08-28T02:05:35.071Z,2.00
2022-08-28T02:08:04.544Z,1.48
2022-08-28T02:10:34.514Z,1.73
2022-08-28T02:13:01.549Z,1.77
2022-08-28T02:15:29.913Z,1.85
2022-08-28T02:17:57.482Z,2.00
2022-08-28T02:20:25.282Z,1.98
2022-08-28T02:22:53.386Z,1.65
2022-08-28T02:25:20.111Z,1.80
2022-08-28T02:27:46.805Z,1.65
2022-08-28T02:30:17.170Z,2.30
2022-08-28T02:32:46.120Z,1.83
2022-08-28T02:35:15.838Z,1.73
2022-08-28T02:37:44.366Z,1.70
2022-08-28T02:40:14.343Z,2.03
2022-08-28T02:42:42.042Z,2.05
2022-08-28T02:45:11.428Z,1.70
2022-08-28T02:47:42.952Z,1.67
2022-08-28T02:50:12.933Z,1.83
2022-08-28T02:52:40.633Z,1.98
2022-08-28T02:55:10.789Z,1.65
2022-08-28T02:57:37.862Z,1.58
2022-08-28T03:00:06.545Z,1.52
2022-08-28T03:02:33.299Z,1.83
2022-08-28T03:05:00.550Z,1.60
2022-08-28T03:07:29.369Z,2.22
2022-08-28T03:09:56.929Z,1.90
2022-08-28T03:12:24.405Z,2.00
2022-08-28T03:14:54.971Z,1.67
2022-08-28T03:17:22.172Z,1.75
2022-08-28T03:19:50.242Z,1.75
2022-08-28T03:22:39.402Z,1.60
2022-08-28T03:25:06.999Z,1.65
2022-08-28T03:27:33.722Z,1.70
2022-08-28T03:30:00.411Z,1.90
2022-08-28T03:32:27.339Z,1.92
2022-08-28T03:34:56.081Z,1.70
2022-08-28T03:37:22.781Z,1.98
2022-08-28T03:39:49.834Z,2.00
2022-08-28T03:42:17.188Z,1.55
2022-08-28T03:44:49.489Z,1.67
2022-08-28T03:47:17.273Z,1.38
2022-08-28T03:49:46.718Z,1.30
2022-08-28T03:52:13.580Z,1.92
2022-08-28T03:54:40.524Z,1.60
2022-08-28T03:57:07.728Z,1.33
2022-08-28T03:59:38.591Z,1.55
2022-08-28T04:02:05.527Z,1.73
2022-08-28T04:04:32.249Z,1.63
2022-08-28T04:06:58.940Z,1.70
2022-08-28T04:09:25.673Z,1.50
2022-08-28T04:11:55.205Z,1.65
2022-08-28T04:14:22.018Z,1.52
2022-08-28T04:16:49.602Z,1.50
2022-08-28T04:19:16.369Z,1.63
2022-08-28T04:21:43.066Z,1.70
2022-08-28T04:24:13.014Z,2.00
2022-08-28T04:26:39.950Z,1.50
2022-08-28T04:29:07.377Z,1.63
2022-08-28T04:31:34.847Z,1.55
2022-08-28T04:34:03.487Z,1.35
2022-08-28T04:36:30.814Z,1.90
2022-08-28T04:38:59.060Z,1.65
2022-08-28T04:41:26.650Z,1.80
2022-08-28T04:43:53.895Z,1.65
2022-08-28T04:46:20.685Z,1.58
2022-08-28T04:48:47.473Z,1.50
2022-08-28T04:51:15.087Z,1.60
2022-08-28T04:53:42.846Z,1.70
2022-08-28T04:56:11.883Z,1.60
2022-08-28T04:58:40.277Z,1.73
2022-08-28T05:01:13.869Z,1.58
2022-08-28T05:03:40.976Z,1.50
2022-08-28T05:06:08.622Z,1.45
2022-08-28T05:08:35.490Z,1.90
2022-08-28T05:11:33.301Z,1.65
2022-08-28T05:14:06.287Z,1.50
2022-08-28T05:16:34.722Z,1.75
2022-08-28T05:19:02.564Z,1.90
2022-08-28T05:21:29.470Z,1.38
2022-08-28T05:23:57.812Z,1.48
2022-08-28T05:26:27.185Z,1.45
2022-08-28T05:29:00.429Z,1.52
2022-08-28T05:31:29.134Z,1.60
2022-08-28T05:33:56.788Z,1.63
2022-08-28T05:36:25.874Z,1.50
2022-08-28T05:38:59.885Z,1.40
2022-08-28T05:41:30.109Z,1.42
2022-08-28T05:44:02.476Z,1.65
2022-08-28T05:46:29.691Z,1.65
2022-08-28T05:48:57.640Z,1.35
2022-08-28T05:51:27.536Z,1.50
2022-08-28T05:53:55.343Z,1.58
2022-08-28T05:56:29.930Z,1.50
2022-08-28T05:59:00.934Z,1.25
2022-08-28T06:01:30.722Z,1.30
2022-08-28T06:04:05.856Z,1.40
2022-08-28T06:06:34.628Z,1.48
2022-08-28T06:09:07.677Z,1.17
2022-08-28T06:11:35.091Z,1.90
2022-08-28T06:14:03.343Z,1.80
2022-08-28T06:16:32.044Z,1.27
2022-08-28T06:19:00.442Z,1.38
2022-08-28T06:21:27.815Z,1.50
2022-08-28T06:23:54.641Z,1.30
2022-08-28T06:26:21.410Z,1.13
2022-08-28T06:28:48.422Z,1.70
2022-08-28T06:31:23.566Z,1.85
2022-08-28T06:33:53.910Z,1.55
2022-08-28T06:36:20.864Z,1.35
2022-08-28T06:38:47.564Z,1.25
2022-08-28T06:41:15.512Z,1.58
2022-08-28T06:43:42.914Z,1.52
2022-08-28T06:46:10.028Z,1.38
2022-08-28T06:48:37.156Z,1.30
2022-08-28T06:51:07.721Z,1.40
2022-08-28T06:53:34.485Z,1.40
2022-08-28T06:56:11.367Z,1.40
2022-08-28T06:58:43.259Z,1.63
2022-08-28T07:01:18.806Z,1.40
2022-08-28T07:03:45.955Z,2.20
2022-08-28T07:06:15.007Z,1.70
2022-08-28T07:08:43.309Z,1.40
2022-08-28T07:11:26.141Z,1.35
2022-08-28T07:13:54.593Z,1.80
2022-08-28T07:16:23.879Z,1.65
2022-08-28T07:18:52.110Z,1.10
2022-08-28T07:21:20.433Z,1.40
2022-08-28T07:23:47.685Z,1.35
2022-08-28T07:26:18.094Z,1.50
2022-08-28T07:28:46.060Z,1.60
2022-08-28T07:31:19.362Z,1.27
2022-08-28T07:33:46.209Z,1.88
2022-08-28T07:36:29.788Z,1.67
2022-08-28T07:39:00.188Z,1.40
2022-08-28T07:41:30.015Z,1.90
2022-08-28T07:44:15.894Z,1.42
2022-08-28T07:46:43.474Z,1.38
2022-08-28T07:49:11.111Z,1.38
2022-08-28T07:51:40.268Z,1.35
2022-08-28T07:54:10.161Z,1.50
2022-08-28T07:59:11.741Z,1.15
2022-08-28T08:01:43.506Z,1.50
2022-08-28T08:04:15.973Z,1.52
2022-08-28T08:06:43.561Z,1.67
2022-08-28T08:09:13.402Z,2.55
2022-08-28T08:11:40.163Z,1.60
2022-08-28T08:14:08.166Z,1.48
2022-08-28T08:16:38.940Z,1.50
2022-08-28T08:19:06.218Z,1.70
2022-08-28T08:21:33.132Z,1.77
2022-08-28T08:23:59.791Z,1.63
2022-08-28T08:26:30.620Z,1.73
2022-08-28T08:28:58.095Z,1.55
2022-08-28T08:31:28.380Z,1.50
2022-08-28T08:33:58.185Z,1.40
2022-08-28T08:36:26.512Z,1.42
2022-08-28T08:38:59.444Z,1.83
2022-08-28T08:41:47.817Z,1.50
2022-08-28T08:44:33.825Z,1.40
2022-08-28T08:47:27.397Z,1.70
2022-08-28T08:50:00.291Z,1.48
2022-08-28T08:52:48.030Z,1.58
2022-08-28T08:55:36.633Z,1.80
2022-08-28T08:58:08.001Z,1.55
2022-08-28T09:00:57.510Z,1.58
2022-08-28T09:03:32.543Z,1.50
2022-08-28T09:06:04.694Z,1.52
2022-08-28T09:08:50.820Z,1.63
2022-08-28T09:11:30.225Z,2.00
2022-08-28T09:14:04.463Z,1.60
2022-08-28T09:16:38.506Z,1.40
2022-08-28T09:19:09.066Z,1.80
2022-08-28T09:21:40.913Z,1.58
2022-08-28T09:24:20.834Z,1.95
2022-08-28T09:27:00.119Z,1.73
2022-08-28T09:29:33.897Z,1.65
2022-08-28T09:32:25.267Z,1.63
2022-08-28T09:35:16.420Z,1.60
2022-08-28T09:37:44.180Z,2.28
2022-08-28T09:40:49.503Z,2.20
2022-08-28T09:43:31.264Z,1.70
2022-08-28T09:46:02.774Z,1.98
2022-08-28T09:48:38.046Z,2.75
2022-08-28T09:51:14.526Z,2.03
2022-08-28T09:53:52.434Z,2.40
2022-08-28T09:56:26.447Z,2.28
2022-08-28T09:58:59.727Z,3.00
2022-08-28T10:01:45.106Z,2.75
2022-08-28T10:05:03.638Z,2.78
2022-08-28T10:07:41.255Z,2.78
2022-08-28T10:10:38.460Z,2.97
2022-08-28T10:13:19.169Z,2.80
2022-08-28T10:16:03.559Z,2.40
2022-08-28T10:19:09.978Z,2.90
2022-08-28T10:21:46.991Z,2.70
2022-08-28T10:24:48.452Z,2.58
2022-08-28T10:27:38.634Z,2.50
2022-08-28T10:30:13.117Z,3.08
2022-08-28T10:33:12.526Z,3.22
2022-08-28T10:36:04.555Z,2.97
2022-08-28T10:38:37.672Z,3.28
2022-08-28T10:41:25.863Z,3.20
2022-08-28T10:43:54.576Z,3.08
2022-08-28T10:46:29.853Z,3.90
2022-08-28T10:51:44.386Z,3.35
2022-08-28T10:54:23.757Z,3.83
2022-08-28T10:57:04.223Z,3.70
2022-08-28T10:59:33.091Z,3.47
2022-08-28T11:02:11.391Z,3.95
2022-08-28T11:04:38.498Z,3.38
2022-08-28T11:07:09.742Z,3.50
2022-08-28T11:09:46.585Z,3.05
2022-08-28T11:12:19.894Z,3.28
2022-08-28T11:14:49.600Z,3.20
2022-08-28T11:17:22.221Z,3.03
2022-08-28T11:20:10.232Z,3.60
2022-08-28T11:22:46.031Z,3.47
2022-08-28T11:25:26.362Z,3.88
2022-08-28T11:28:39.202Z,3.17
2022-08-28T11:31:06.025Z,3.08
2022-08-28T11:33:43.539Z,3.08
2022-08-28T11:36:19.541Z,3.20
2022-08-28T11:38:51.958Z,3.08
2022-08-28T11:41:30.958Z,3.53
2022-08-28T11:44:09.945Z,2.60
2022-08-28T11:46:49.412Z,2.95
2022-08-28T11:49:34.259Z,3.45
2022-08-28T11:52:39.198Z,3.03
2022-08-28T11:55:09.215Z,2.92
2022-08-28T12:00:38.365Z,3.08
2022-08-28T12:03:15.471Z,2.80
2022-08-28T12:05:52.036Z,3.45
2022-08-28T12:08:47.562Z,2.75
2022-08-28T12:11:40.140Z,3.03
2022-08-28T12:14:10.642Z,2.95
2022-08-28T12:16:59.079Z,3.00
2022-08-28T12:19:56.379Z,2.97
2022-08-28T12:22:39.499Z,3.00
2022-08-28T12:25:14.932Z,2.63
2022-08-28T12:27:42.073Z,2.88
2022-08-28T12:30:10.196Z,2.80
2022-08-28T12:32:42.720Z,2.95
2022-08-28T12:35:24.000Z,2.65
2022-08-28T12:37:54.872Z,3.40
2022-08-28T12:40:24.801Z,3.50
2022-08-28T12:43:27.739Z,3.03
2022-08-28T12:46:19.742Z,2.75
2022-08-28T12:48:56.145Z,2.85
2022-08-28T12:51:30.943Z,3.30
2022-08-28T12:54:03.372Z,2.63
2022-08-28T12:56:36.094Z,3.60
2022-08-28T12:59:38.142Z,3.10
2022-08-28T13:02:20.582Z,3.22
2022-08-28T13:05:06.452Z,3.38
2022-08-28T13:10:37.414Z,3.42
2022-08-28T13:13:17.779Z,3.55
2022-08-28T13:16:03.022Z,2.85
2022-08-28T13:18:42.735Z,3.30
2022-08-28T13:21:25.551Z,3.17
2022-08-28T13:24:21.800Z,5.05
2022-08-28T13:26:50.672Z,3.45
2022-08-28T13:29:20.741Z,3.00
2022-08-28T13:31:56.298Z,3.97
2022-08-28T13:34:28.674Z,3.42
2022-08-28T13:37:01.138Z,2.88
2022-08-28T13:39:30.050Z,4.93
2022-08-28T13:42:12.438Z,3.78
2022-08-28T13:44:48.813Z,3.50
2022-08-28T13:47:16.702Z,3.45
2022-08-28T13:49:43.594Z,3.17
2022-08-28T13:52:10.985Z,3.30
2022-08-28T13:54:39.237Z,3.53
2022-08-28T13:57:11.258Z,3.45
2022-08-28T13:59:38.130Z,3.25
2022-08-28T14:02:25.091Z,3.30
2022-08-28T14:04:52.072Z,3.40
2022-08-28T14:07:19.010Z,3.33
2022-08-28T14:09:45.863Z,3.22
2022-08-28T14:12:13.752Z,3.58
2022-08-28T14:14:40.986Z,2.97
2022-08-28T14:17:09.694Z,3.38
2022-08-28T14:19:37.075Z,2.95
2022-08-28T14:22:04.486Z,3.40
2022-08-28T14:24:31.933Z,3.47
2022-08-28T14:26:58.919Z,3.72
2022-08-28T14:29:25.897Z,3.28
2022-08-28T14:31:52.888Z,3.80
2022-08-28T14:34:22.442Z,3.45
2022-08-28T14:36:55.213Z,3.30
2022-08-28T14:39:25.218Z,3.78
2022-08-28T14:41:53.260Z,3.47
2022-08-28T14:44:21.789Z,3.70
2022-08-28T14:46:49.625Z,4.00
2022-08-28T14:49:18.503Z,3.45
2022-08-28T14:51:46.465Z,3.58
2022-08-28T14:54:15.839Z,3.47
2022-08-28T14:56:43.654Z,3.60
2022-08-28T14:59:17.510Z,3.53
2022-08-28T15:01:48.621Z,3.67
2022-08-28T15:04:18.919Z,3.80
2022-08-28T15:06:46.051Z,4.15
2022-08-28T15:09:14.722Z,3.90
2022-08-28T15:11:44.984Z,4.45
2022-08-28T15:14:13.117Z,3.75
2022-08-28T15:16:42.899Z,3.92
2022-08-28T15:19:12.370Z,4.32
2022-08-28T15:21:44.862Z,3.45
2022-08-28T15:24:13.434Z,3.63
2022-08-28T15:26:40.208Z,4.45
2022-08-28T15:29:07.285Z,3.45
2022-08-28T15:31:40.351Z,3.60
2022-08-28T15:34:13.655Z,3.60
2022-08-28T15:36:42.107Z,3.90
2022-08-28T15:39:28.487Z,3.55
2022-08-28T15:41:56.250Z,3.72
2022-08-28T15:44:23.086Z,4.30
2022-08-28T15:46:59.291Z,4.13
2022-08-28T15:49:28.940Z,4.35
2022-08-28T15:51:56.270Z,4.07
2022-08-28T15:54:24.527Z,4.20
2022-08-28T15:56:53.803Z,3.83
2022-08-28T15:59:21.654Z,3.95
2022-08-28T16:01:50.688Z,5.15
2022-08-28T16:04:17.906Z,6.82
2022-08-28T16:06:46.212Z,5.47
2022-08-28T16:09:13.466Z,5.15
2022-08-28T16:11:42.346Z,5.50
2022-08-28T16:14:09.054Z,5.05
2022-08-28T16:16:37.346Z,4.50
2022-08-28T16:19:04.642Z,5.57
2022-08-28T16:21:31.764Z,5.80
2022-08-28T16:23:58.465Z,4.63
2022-08-28T16:26:25.301Z,5.35
2022-08-28T16:28:52.090Z,5.82
2022-08-28T16:34:06.786Z,6.28
2022-08-28T16:35:56.711Z,5.45
2022-08-28T16:36:38.206Z,5.07
2022-08-28T16:39:04.914Z,5.95
2022-08-28T16:41:32.239Z,5.82
2022-08-28T16:44:01.342Z,4.95
2022-08-28T16:46:28.321Z,5.97
2022-08-28T16:48:55.399Z,5.68
2022-08-28T16:51:22.657Z,4.82
2022-08-28T16:53:49.411Z,5.47
2022-08-28T16:56:17.947Z,6.28
2022-08-28T16:58:45.048Z,5.18
2022-08-28T17:01:13.454Z,6.07
2022-08-28T17:03:44.158Z,6.65
2022-08-28T17:06:17.947Z,7.28
2022-08-28T17:08:45.321Z,6.95
2022-08-28T17:11:12.861Z,5.65
2022-08-28T17:13:40.419Z,6.38
2022-08-28T17:16:08.132Z,6.10
2022-08-28T17:18:35.885Z,5.82
2022-08-28T17:21:22.465Z,6.20
2022-08-28T17:23:49.767Z,7.15
2022-08-28T17:26:17.556Z,5.45
2022-08-28T17:28:45.857Z,5.80
2022-08-28T17:31:14.324Z,4.90
2022-08-28T17:33:43.562Z,4.82
2022-08-28T17:36:21.295Z,4.90
2022-08-28T17:39:01.582Z,4.97
2022-08-28T17:41:28.327Z,5.25
2022-08-28T17:43:55.089Z,5.25
2022-08-28T17:46:22.313Z,4.72
2022-08-28T17:48:53.615Z,4.18
2022-08-28T17:51:42.568Z,3.90
2022-08-28T17:54:15.582Z,5.47
2022-08-28T17:56:42.994Z,4.55
2022-08-28T17:59:11.370Z,3.67
2022-08-28T18:01:38.827Z,4.28
2022-08-28T18:04:06.165Z,4.10
2022-08-28T18:06:33.937Z,3.55
2022-08-28T18:09:01.246Z,3.17
2022-08-28T18:11:28.553Z,4.10
2022-08-28T18:13:55.286Z,3.58
2022-08-28T18:16:22.146Z,4.63
2022-08-28T18:18:49.018Z,3.53
2022-08-28T18:21:15.757Z,3.42
2022-08-28T18:23:42.505Z,3.50
2022-08-28T18:26:10.977Z,3.58
2022-08-28T18:28:38.135Z,3.75
2022-08-28T18:31:06.387Z,3.83
2022-08-28T18:33:37.163Z,3.65
2022-08-28T18:36:07.471Z,4.32
2022-08-28T18:38:35.498Z,3.85
2022-08-28T18:41:04.442Z,3.92
2022-08-28T18:43:31.925Z,3.75
2022-08-28T18:46:03.173Z,3.20
2022-08-28T18:48:31.759Z,3.55
2022-08-28T18:50:58.461Z,3.70
2022-08-28T18:53:26.439Z,3.72
2022-08-28T18:55:55.061Z,3.33
2022-08-28T18:58:23.171Z,3.22
2022-08-28T19:00:49.940Z,3.33
2022-08-28T19:03:16.758Z,3.67
2022-08-28T19:05:43.645Z,3.33
2022-08-28T19:08:10.351Z,3.97
2022-08-28T19:10:38.330Z,3.70
2022-08-28T19:13:06.407Z,3.08
2022-08-28T19:15:35.598Z,3.25
2022-08-28T19:18:04.271Z,3.33
2022-08-28T19:20:31.702Z,4.22
2022-08-28T19:22:59.445Z,3.22
2022-08-28T19:25:29.252Z,3.42
2022-08-28T19:28:01.721Z,3.53
2022-08-28T19:30:32.781Z,3.05
2022-08-28T19:33:01.049Z,3.10
2022-08-28T19:35:31.056Z,2.97
2022-08-28T19:37:57.820Z,3.00
2022-08-28T19:40:24.671Z,3.00
2022-08-28T19:42:51.855Z,2.70
2022-08-28T19:45:19.720Z,3.63
2022-08-28T19:47:47.190Z,3.47
2022-08-28T19:50:15.568Z,3.38
2022-08-28T19:52:43.298Z,3.30
2022-08-28T19:55:17.594Z,3.00
2022-08-28T19:57:44.498Z,3.28
2022-08-28T20:00:11.856Z,2.90
2022-08-28T20:02:38.863Z,2.80
2022-08-28T20:05:06.945Z,3.13
2022-08-28T20:07:33.607Z,3.33
2022-08-28T20:10:01.270Z,3.22
2022-08-28T20:12:28.157Z,2.78
2022-08-28T20:14:54.866Z,3.15
2022-08-28T20:17:21.986Z,3.10
2022-08-28T20:19:49.932Z,3.78
2022-08-28T20:22:17.926Z,3.20
2022-08-28T20:24:44.829Z,3.17
2022-08-28T20:27:11.765Z,3.40
2022-08-28T20:29:39.104Z,2.88
2022-08-28T20:32:05.937Z,3.15
2022-08-28T20:34:33.850Z,2.83
2022-08-28T20:37:00.831Z,3.22
2022-08-28T20:39:28.422Z,3.10
2022-08-28T20:41:55.344Z,2.95
2022-08-28T20:44:22.572Z,2.80
2022-08-28T20:46:51.528Z,3.53
2022-08-28T20:49:21.688Z,2.97
2022-08-28T20:51:57.609Z,3.00
2022-08-28T20:54:33.600Z,3.00
2022-08-28T20:57:05.402Z,3.20
2022-08-28T20:59:39.674Z,2.58
2022-08-28T21:02:13.791Z,2.70
2022-08-28T21:04:41.991Z,2.65
2022-08-28T21:07:09.561Z,2.50
2022-08-28T21:10:04.442Z,2.58
2022-08-28T21:12:23.833Z,2.97
2022-08-28T21:14:52.940Z,3.10
2022-08-28T21:17:29.355Z,2.80
2022-08-28T21:19:58.604Z,2.38
2022-08-28T21:22:25.269Z,3.13
2022-08-28T21:24:51.962Z,3.35
2022-08-28T21:27:18.826Z,2.50
2022-08-28T21:29:46.103Z,2.95
2022-08-28T21:32:13.219Z,3.00
2022-08-28T21:34:40.140Z,2.45
2022-08-28T21:37:06.840Z,2.67
2022-08-28T21:39:33.734Z,2.60
2022-08-28T21:42:00.708Z,2.90
2022-08-28T21:44:27.420Z,2.60
2022-08-28T21:46:54.160Z,2.22
2022-08-28T21:49:22.641Z,2.35
2022-08-28T21:51:49.789Z,2.25
2022-08-28T21:54:17.046Z,2.22
2022-08-28T21:56:43.855Z,2.70
2022-08-28T21:59:10.698Z,3.00
2022-08-28T22:01:37.700Z,2.72
2022-08-28T22:04:05.125Z,2.60
2022-08-28T22:06:32.353Z,2.65
2022-08-28T22:08:59.027Z,2.80
2022-08-28T22:11:30.902Z,2.22
2022-08-28T22:13:58.038Z,1.95
2022-08-28T22:16:26.569Z,2.25
2022-08-28T22:18:54.029Z,2.08
2022-08-28T22:21:43.107Z,2.20
2022-08-28T22:24:10.734Z,2.40
2022-08-28T22:26:38.570Z,1.83
2022-08-28T22:29:07.346Z,2.50
2022-08-28T22:31:35.291Z,2.10
2022-08-28T22:34:06.153Z,2.35
2022-08-28T22:36:33.344Z,2.45
2022-08-28T22:39:00.120Z,2.00
2022-08-28T22:41:27.096Z,2.08
2022-08-28T22:43:53.777Z,2.15
2022-08-28T22:46:21.021Z,2.03
2022-08-28T22:48:48.070Z,2.15
2022-08-28T22:51:18.422Z,2.00
2022-08-28T22:53:46.775Z,2.30
2022-08-28T22:56:15.961Z,2.15
2022-08-28T22:58:42.713Z,2.00
2022-08-28T23:01:17.710Z,2.10
2022-08-28T23:03:44.976Z,2.03
2022-08-28T23:06:12.346Z,1.77
2022-08-28T23:08:39.477Z,1.95
2022-08-28T23:11:10.350Z,1.73
2022-08-28T23:13:37.408Z,1.90
2022-08-28T23:16:04.799Z,1.63
2022-08-28T23:18:46.238Z,2.08
2022-08-28T23:21:19.909Z,2.03
2022-08-28T23:23:46.974Z,1.45
2022-08-28T23:26:15.293Z,2.28
2022-08-28T23:28:43.700Z,1.90
2022-08-28T23:31:10.712Z,2.03
2022-08-28T23:33:37.619Z,1.83
2022-08-28T23:36:05.167Z,1.83
2022-08-28T23:38:31.932Z,1.95
2022-08-28T23:41:02.248Z,1.75
2022-08-28T23:43:29.761Z,1.67
2022-08-28T23:45:56.666Z,1.52
2022-08-28T23:48:24.974Z,1.90
2022-08-28T23:50:53.072Z,1.70
2022-08-28T23:53:20.307Z,1.70
2022-08-28T23:55:49.504Z,1.77
2022-08-28T23:58:18.312Z,1.50
